aviador You're here:

KSIK Decoded Metar

in
Report Time2017-06-25 01:55:00
UTC Time2017-06-25 02:03:35
Flight Rules vfr VFR
WindCalm
Visibility9999 m
Phenomena:N/A
Clouds:N/A
Expected CloudBase > 2,000 ft AGL from Temp-Dew spread
CeilingNone
Temp20°C
Dew Point15°C (73% RH)
QNH1021 hPa
Raw Report
KSIK 250155Z AUTO 00000KT 10SM CLR 20/15 A3015 RMK AO2=

Extra information for KSIK:More info

Social comments